sensor_id;sensor_type;location;lat;lon;timestamp;P1;durP1;ratioP1;P2;durP2;ratioP2
60016;SDS011;45869;52.698;6.210;2023-08-21T00:01:46;3.22;;;1.77;;
60016;SDS011;45869;52.698;6.210;2023-08-21T00:04:16;4.43;;;1.80;;
60016;SDS011;45869;52.698;6.210;2023-08-21T00:06:59;3.42;;;1.75;;
60016;SDS011;45869;52.698;6.210;2023-08-21T00:09:35;4.95;;;2.05;;
60016;SDS011;45869;52.698;6.210;2023-08-21T00:12:07;3.33;;;1.90;;
60016;SDS011;45869;52.698;6.210;2023-08-21T00:21:26;4.35;;;1.77;;
60016;SDS011;45869;52.698;6.210;2023-08-21T00:23:56;4.70;;;1.90;;
60016;SDS011;45869;52.698;6.210;2023-08-21T00:27:05;2.88;;;1.70;;
60016;SDS011;45869;52.698;6.210;2023-08-21T00:29:50;4.25;;;1.80;;
60016;SDS011;45869;52.698;6.210;2023-08-21T00:32:19;3.28;;;1.77;;
60016;SDS011;45869;52.698;6.210;2023-08-21T00:34:45;4.30;;;1.85;;
60016;SDS011;45869;52.698;6.210;2023-08-21T00:37:23;3.22;;;1.60;;
60016;SDS011;45869;52.698;6.210;2023-08-21T00:45:57;3.47;;;1.85;;
60016;SDS011;45869;52.698;6.210;2023-08-21T00:48:35;3.22;;;1.45;;
60016;SDS011;45869;52.698;6.210;2023-08-21T00:54:26;3.05;;;1.60;;
60016;SDS011;45869;52.698;6.210;2023-08-21T00:57:18;2.88;;;1.63;;
60016;SDS011;45869;52.698;6.210;2023-08-21T01:00:45;3.17;;;1.65;;
60016;SDS011;45869;52.698;6.210;2023-08-21T01:04:12;4.57;;;1.60;;
60016;SDS011;45869;52.698;6.210;2023-08-21T01:06:50;4.32;;;1.80;;
60016;SDS011;45869;52.698;6.210;2023-08-21T01:10:09;4.35;;;1.85;;
60016;SDS011;45869;52.698;6.210;2023-08-21T01:15:44;3.47;;;1.80;;
60016;SDS011;45869;52.698;6.210;2023-08-21T01:18:25;4.72;;;1.80;;
60016;SDS011;45869;52.698;6.210;2023-08-21T01:21:16;4.55;;;2.33;;
60016;SDS011;45869;52.698;6.210;2023-08-21T01:29:44;4.35;;;1.90;;
60016;SDS011;45869;52.698;6.210;2023-08-21T01:34:55;3.33;;;1.70;;
60016;SDS011;45869;52.698;6.210;2023-08-21T01:37:22;3.28;;;1.83;;
60016;SDS011;45869;52.698;6.210;2023-08-21T01:39:51;3.38;;;1.65;;
60016;SDS011;45869;52.698;6.210;2023-08-21T01:57:37;3.30;;;2.25;;
60016;SDS011;45869;52.698;6.210;2023-08-21T02:06:31;3.45;;;2.22;;
60016;SDS011;45869;52.698;6.210;2023-08-21T02:12:35;5.13;;;2.13;;
60016;SDS011;45869;52.698;6.210;2023-08-21T02:15:53;3.63;;;2.00;;
60016;SDS011;45869;52.698;6.210;2023-08-21T02:21:00;3.92;;;2.22;;
60016;SDS011;45869;52.698;6.210;2023-08-21T02:23:26;4.32;;;1.83;;
60016;SDS011;45869;52.698;6.210;2023-08-21T02:25:53;3.13;;;1.98;;
60016;SDS011;45869;52.698;6.210;2023-08-21T02:28:19;3.13;;;1.95;;
60016;SDS011;45869;52.698;6.210;2023-08-21T02:30:51;5.90;;;2.30;;
60016;SDS011;45869;52.698;6.210;2023-08-21T02:33:17;3.00;;;1.73;;
60016;SDS011;45869;52.698;6.210;2023-08-21T02:35:43;3.80;;;2.13;;
60016;SDS011;45869;52.698;6.210;2023-08-21T02:38:12;4.43;;;1.98;;
60016;SDS011;45869;52.698;6.210;2023-08-21T02:47:45;4.55;;;2.20;;
60016;SDS011;45869;52.698;6.210;2023-08-21T03:04:43;3.22;;;2.20;;
60016;SDS011;45869;52.698;6.210;2023-08-21T03:28:47;4.32;;;2.92;;
60016;SDS011;45869;52.698;6.210;2023-08-21T04:50:34;4.72;;;3.33;;
60016;SDS011;45869;52.698;6.210;2023-08-21T05:22:29;5.55;;;2.80;;
60016;SDS011;45869;52.698;6.210;2023-08-21T05:58:09;7.47;;;3.38;;
60016;SDS011;45869;52.698;6.210;2023-08-21T06:07:39;6.22;;;3.30;;
60016;SDS011;45869;52.698;6.210;2023-08-21T06:29:47;7.68;;;4.25;;
60016;SDS011;45869;52.698;6.210;2023-08-21T06:35:40;8.23;;;3.90;;
60016;SDS011;45869;52.698;6.210;2023-08-21T06:57:40;6.55;;;2.88;;
60016;SDS011;45869;52.698;6.210;2023-08-21T07:00:15;7.50;;;2.80;;
60016;SDS011;45869;52.698;6.210;2023-08-21T07:34:53;3.80;;;1.48;;
60016;SDS011;45869;52.698;6.210;2023-08-21T08:02:59;6.75;;;1.70;;
60016;SDS011;45869;52.698;6.210;2023-08-21T08:09:00;5.88;;;1.73;;
60016;SDS011;45869;52.698;6.210;2023-08-21T15:47:46;4.55;;;0.65;;
60016;SDS011;45869;52.698;6.210;2023-08-21T17:12:58;4.53;;;1.00;;
60016;SDS011;45869;52.698;6.210;2023-08-21T18:35:55;2.78;;;0.98;;
60016;SDS011;45869;52.698;6.210;2023-08-21T18:38:27;4.20;;;1.30;;
60016;SDS011;45869;52.698;6.210;2023-08-21T20:46:43;4.20;;;1.90;;
60016;SDS011;45869;52.698;6.210;2023-08-21T20:49:09;3.35;;;1.70;;
60016;SDS011;45869;52.698;6.210;2023-08-21T20:51:35;4.90;;;1.92;;
60016;SDS011;45869;52.698;6.210;2023-08-21T20:54:04;3.60;;;1.80;;
60016;SDS011;45869;52.698;6.210;2023-08-21T20:56:34;4.85;;;1.98;;
60016;SDS011;45869;52.698;6.210;2023-08-21T20:59:00;3.42;;;1.73;;
60016;SDS011;45869;52.698;6.210;2023-08-21T21:01:26;3.63;;;1.83;;
60016;SDS011;45869;52.698;6.210;2023-08-21T21:03:52;4.35;;;2.30;;
60016;SDS011;45869;52.698;6.210;2023-08-21T21:06:21;4.97;;;2.67;;
60016;SDS011;45869;52.698;6.210;2023-08-21T21:08:48;5.22;;;2.65;;
60016;SDS011;45869;52.698;6.210;2023-08-21T21:11:14;6.22;;;2.40;;
60016;SDS011;45869;52.698;6.210;2023-08-21T21:13:40;6.18;;;2.38;;
60016;SDS011;45869;52.698;6.210;2023-08-21T21:16:06;5.53;;;2.63;;
60016;SDS011;45869;52.698;6.210;2023-08-21T21:18:41;4.78;;;2.47;;
60016;SDS011;45869;52.698;6.210;2023-08-21T21:21:10;4.70;;;2.30;;
60016;SDS011;45869;52.698;6.210;2023-08-21T21:23:36;4.60;;;2.00;;
60016;SDS011;45869;52.698;6.210;2023-08-21T21:26:02;7.07;;;2.15;;
60016;SDS011;45869;52.698;6.210;2023-08-21T21:28:28;5.45;;;2.20;;
60016;SDS011;45869;52.698;6.210;2023-08-21T21:30:55;5.40;;;2.15;;
60016;SDS011;45869;52.698;6.210;2023-08-21T21:33:21;7.30;;;2.92;;
60016;SDS011;45869;52.698;6.210;2023-08-21T21:35:47;5.55;;;3.03;;
60016;SDS011;45869;52.698;6.210;2023-08-21T21:38:13;5.53;;;2.85;;
60016;SDS011;45869;52.698;6.210;2023-08-21T21:40:52;4.35;;;2.42;;
60016;SDS011;45869;52.698;6.210;2023-08-21T21:43:21;6.30;;;3.05;;
60016;SDS011;45869;52.698;6.210;2023-08-21T21:45:56;6.60;;;2.63;;
60016;SDS011;45869;52.698;6.210;2023-08-21T21:48:27;5.80;;;2.92;;
60016;SDS011;45869;52.698;6.210;2023-08-21T21:50:54;4.78;;;2.58;;
60016;SDS011;45869;52.698;6.210;2023-08-21T21:53:23;5.82;;;2.83;;
60016;SDS011;45869;52.698;6.210;2023-08-21T21:55:49;7.20;;;3.30;;
60016;SDS011;45869;52.698;6.210;2023-08-21T21:58:16;7.35;;;3.08;;
60016;SDS011;45869;52.698;6.210;2023-08-21T22:00:48;5.72;;;2.78;;
60016;SDS011;45869;52.698;6.210;2023-08-21T22:03:16;5.20;;;3.00;;
60016;SDS011;45869;52.698;6.210;2023-08-21T22:05:43;6.53;;;3.38;;
60016;SDS011;45869;52.698;6.210;2023-08-21T22:08:11;5.28;;;3.22;;
60016;SDS011;45869;52.698;6.210;2023-08-21T22:10:37;5.53;;;3.20;;
60016;SDS011;45869;52.698;6.210;2023-08-21T22:13:04;6.53;;;3.53;;
60016;SDS011;45869;52.698;6.210;2023-08-21T22:15:31;4.68;;;3.28;;
60016;SDS011;45869;52.698;6.210;2023-08-21T22:17:57;4.57;;;3.28;;
60016;SDS011;45869;52.698;6.210;2023-08-21T22:20:27;5.35;;;3.25;;
60016;SDS011;45869;52.698;6.210;2023-08-21T22:22:53;5.22;;;3.03;;
60016;SDS011;45869;52.698;6.210;2023-08-21T22:25:19;6.85;;;3.20;;
60016;SDS011;45869;52.698;6.210;2023-08-21T22:27:45;5.70;;;2.78;;
60016;SDS011;45869;52.698;6.210;2023-08-21T22:30:14;5.43;;;2.80;;
60016;SDS011;45869;52.698;6.210;2023-08-21T22:32:46;4.95;;;3.20;;
60016;SDS011;45869;52.698;6.210;2023-08-21T22:35:12;5.07;;;2.80;;
60016;SDS011;45869;52.698;6.210;2023-08-21T22:37:38;5.97;;;3.08;;
60016;SDS011;45869;52.698;6.210;2023-08-21T22:40:07;4.25;;;2.85;;
60016;SDS011;45869;52.698;6.210;2023-08-21T22:42:33;5.22;;;3.28;;
60016;SDS011;45869;52.698;6.210;2023-08-21T22:45:02;6.00;;;3.17;;
60016;SDS011;45869;52.698;6.210;2023-08-21T22:47:29;6.43;;;3.10;;
60016;SDS011;45869;52.698;6.210;2023-08-21T22:49:55;4.60;;;2.85;;
60016;SDS011;45869;52.698;6.210;2023-08-21T22:52:24;4.63;;;2.88;;
60016;SDS011;45869;52.698;6.210;2023-08-21T22:54:50;4.75;;;2.90;;
60016;SDS011;45869;52.698;6.210;2023-08-21T22:57:19;5.18;;;3.20;;
60016;SDS011;45869;52.698;6.210;2023-08-21T22:59:45;5.03;;;2.95;;
60016;SDS011;45869;52.698;6.210;2023-08-21T23:02:11;6.65;;;3.38;;
60016;SDS011;45869;52.698;6.210;2023-08-21T23:04:37;5.13;;;2.92;;
60016;SDS011;45869;52.698;6.210;2023-08-21T23:07:03;5.18;;;3.20;;
60016;SDS011;45869;52.698;6.210;2023-08-21T23:09:30;5.25;;;3.08;;
60016;SDS011;45869;52.698;6.210;2023-08-21T23:11:56;6.63;;;3.22;;
60016;SDS011;45869;52.698;6.210;2023-08-21T23:14:22;6.57;;;3.42;;
60016;SDS011;45869;52.698;6.210;2023-08-21T23:16:48;4.82;;;3.10;;
60016;SDS011;45869;52.698;6.210;2023-08-21T23:19:16;5.78;;;2.83;;
60016;SDS011;45869;52.698;6.210;2023-08-21T23:21:45;4.07;;;2.85;;
60016;SDS011;45869;52.698;6.210;2023-08-21T23:24:12;5.40;;;2.58;;
60016;SDS011;45869;52.698;6.210;2023-08-21T23:26:38;4.68;;;2.90;;
60016;SDS011;45869;52.698;6.210;2023-08-21T23:29:04;5.32;;;3.20;;
60016;SDS011;45869;52.698;6.210;2023-08-21T23:31:33;4.45;;;2.97;;
60016;SDS011;45869;52.698;6.210;2023-08-21T23:34:02;4.30;;;2.78;;
60016;SDS011;45869;52.698;6.210;2023-08-21T23:36:28;5.60;;;2.50;;
60016;SDS011;45869;52.698;6.210;2023-08-21T23:38:54;5.53;;;3.17;;
60016;SDS011;45869;52.698;6.210;2023-08-21T23:41:20;4.07;;;2.25;;
60016;SDS011;45869;52.698;6.210;2023-08-21T23:43:46;6.05;;;3.00;;
60016;SDS011;45869;52.698;6.210;2023-08-21T23:46:16;6.75;;;2.65;;
60016;SDS011;45869;52.698;6.210;2023-08-21T23:48:42;6.53;;;3.30;;
60016;SDS011;45869;52.698;6.210;2023-08-21T23:51:08;7.32;;;3.25;;
60016;SDS011;45869;52.698;6.210;2023-08-21T23:53:35;5.65;;;2.90;;
60016;SDS011;45869;52.698;6.210;2023-08-21T23:56:01;5.50;;;2.88;;
60016;SDS011;45869;52.698;6.210;2023-08-21T23:58:29;4.72;;;2.72;;
